Time;durP1;ratioP1;P1;durP2;ratioP2;P2;SDS_P1;SDS_P2;PMS_P1;PMS_P2;Temp;Humidity;BMP_temperature;BMP_pressure;BME280_temperature;BME280_humidity;BME280_pressure;Samples;Min_cycle;Max_cycle;Signal;HPM_P1;HPM_P2
2024/04/01 00:01:46;;;;;;;33.77;24.23;;;;;;;10.49;100.00;98797.06;5053995;28;20211;-79
2024/04/01 00:04:12;;;;;;;37.77;23.53;;;;;;;10.43;100.00;98796.63;5046557;28;20264;-79
2024/04/01 00:06:39;;;;;;;35.20;23.43;;;;;;;10.39;100.00;98792.56;5052332;28;20326;-79
2024/04/01 00:09:04;;;;;;;38.47;24.30;;;;;;;10.35;100.00;98791.19;5054659;28;20320;-80
2024/04/01 00:11:31;;;;;;;42.20;24.93;;;;;;;10.31;100.00;98797.78;5052817;28;20665;-79
2024/04/01 00:13:56;;;;;;;41.83;25.10;;;;;;;10.28;100.00;98795.38;5054881;28;20241;-78
2024/04/01 00:16:23;;;;;;;45.33;26.07;;;;;;;10.26;100.00;98801.81;5059660;28;20198;-79
2024/04/01 00:18:50;;;;;;;43.00;26.87;;;;;;;10.24;100.00;98817.94;5044773;28;20288;-79
2024/04/01 00:21:17;;;;;;;55.07;30.63;;;;;;;10.21;100.00;98820.88;5052518;28;20234;-79
2024/04/01 00:23:43;;;;;;;56.87;32.27;;;;;;;10.19;100.00;98828.16;5056037;28;20283;-79
2024/04/01 00:26:10;;;;;;;46.37;29.77;;;;;;;10.17;100.00;98839.91;5054419;28;20377;-79
2024/04/01 00:28:35;;;;;;;46.13;27.40;;;;;;;10.17;100.00;98824.78;5054432;28;20257;-80
2024/04/01 00:31:02;;;;;;;41.20;25.23;;;;;;;10.17;100.00;98835.41;5057536;28;20700;-78
2024/04/01 00:33:28;;;;;;;37.20;23.50;;;;;;;10.22;100.00;98838.50;5049624;28;20236;-79
2024/04/01 00:35:56;;;;;;;31.73;22.63;;;;;;;10.16;100.00;98833.72;5057634;28;20687;-79
2024/04/01 00:38:22;;;;;;;31.70;20.97;;;;;;;10.03;100.00;98833.16;5057708;28;20707;-78
2024/04/01 00:40:49;;;;;;;30.10;21.13;;;;;;;9.90;100.00;98819.25;5058053;28;20285;-79
2024/04/01 00:43:15;;;;;;;33.97;22.37;;;;;;;9.80;100.00;98811.28;5057720;28;20236;-79
2024/04/01 00:45:44;;;;;;;35.47;22.67;;;;;;;9.77;100.00;98810.72;5055950;28;20237;-78
2024/04/01 00:48:12;;;;;;;37.30;23.73;;;;;;;9.74;100.00;98807.34;5054317;28;20674;-79
2024/04/01 00:50:40;;;;;;;37.93;24.83;;;;;;;9.73;100.00;98796.84;5059537;28;20244;-80
2024/04/01 00:53:10;;;;;;;39.90;25.50;;;;;;;9.71;100.00;98785.50;5051937;28;20248;-79
2024/04/01 00:55:39;;;;;;;43.07;25.47;;;;;;;9.70;100.00;98776.69;5054405;28;20738;-79
2024/04/01 00:58:05;;;;;;;44.33;27.73;;;;;;;9.69;100.00;98774.16;5056676;28;20216;-79
2024/04/01 01:00:33;;;;;;;49.40;26.40;;;;;;;9.68;100.00;98778.63;5052571;28;20205;-79
2024/04/01 01:03:00;;;;;;;44.03;27.10;;;;;;;9.68;100.00;98775.13;5059034;28;20669;-78
2024/04/01 01:05:28;;;;;;;51.93;27.00;;;;;;;9.67;100.00;98765.50;5054666;28;20264;-79
2024/04/01 01:07:54;;;;;;;43.93;27.20;;;;;;;9.66;100.00;98762.00;5060447;28;20648;-79
2024/04/01 01:10:24;;;;;;;54.67;30.43;;;;;;;9.66;100.00;98770.00;5058165;28;20232;-78
2024/04/01 01:12:49;;;;;;;57.37;30.67;;;;;;;9.67;100.00;98770.84;5055605;28;20202;-79
2024/04/01 01:15:16;;;;;;;47.73;27.57;;;;;;;9.65;100.00;98764.81;5050340;28;20253;-78
2024/04/01 01:17:43;;;;;;;41.67;26.37;;;;;;;9.55;100.00;98762.13;5057748;28;20278;-80
2024/04/01 01:20:12;;;;;;;58.83;30.93;;;;;;;9.48;100.00;98762.81;5058145;28;20215;-79
2024/04/01 01:22:40;;;;;;;63.90;32.67;;;;;;;9.45;100.00;98750.63;5052313;28;20778;-78
2024/04/01 01:25:08;;;;;;;63.63;35.77;;;;;;;9.43;100.00;98751.75;5053042;28;20256;-79
2024/04/01 01:27:34;;;;;;;85.07;38.33;;;;;;;9.41;100.00;98751.88;5053299;28;20221;-79
2024/04/01 01:30:01;;;;;;;80.27;39.03;;;;;;;9.40;100.00;98752.84;5055120;28;20283;-79
2024/04/01 01:32:27;;;;;;;69.87;36.83;;;;;;;9.39;100.00;98749.34;5052450;28;20209;-79
2024/04/01 01:34:54;;;;;;;68.77;35.87;;;;;;;9.37;100.00;98737.19;5056608;28;20229;-79
2024/04/01 01:37:20;;;;;;;91.80;41.93;;;;;;;9.36;100.00;98736.34;5055569;28;20232;-79
2024/04/01 01:39:48;;;;;;;78.87;39.57;;;;;;;9.35;100.00;98726.69;5056158;28;20205;-80
2024/04/01 01:42:13;;;;;;;66.53;33.77;;;;;;;9.36;100.00;98730.19;5057912;28;20298;-79
2024/04/01 01:44:40;;;;;;;51.10;31.00;;;;;;;9.34;100.00;98730.31;5055849;28;20300;-79
2024/04/01 01:47:05;;;;;;;54.43;31.10;;;;;;;9.34;100.00;98725.00;5055221;28;20707;-79
2024/04/01 01:49:32;;;;;;;49.77;28.83;;;;;;;9.34;100.00;98718.84;5056272;28;20229;-78
2024/04/01 01:51:58;;;;;;;50.20;30.97;;;;;;;9.33;100.00;98733.09;5059415;28;20244;-80
2024/04/01 01:54:25;;;;;;;47.47;30.40;;;;;;;9.32;100.00;98726.94;5058832;28;20221;-79
2024/04/01 01:56:52;;;;;;;51.17;30.87;;;;;;;9.30;100.00;98734.25;5057583;28;20203;-79
2024/04/01 01:59:18;;;;;;;47.97;30.07;;;;;;;9.30;100.00;98734.25;5055814;28;20654;-79
2024/04/01 02:01:44;;;;;;;49.93;32.13;;;;;;;9.27;100.00;98739.81;5056159;28;20244;-80
2024/04/01 02:04:10;;;;;;;50.47;32.00;;;;;;;9.26;100.00;98743.44;5056315;28;20205;-79
2024/04/01 02:06:36;;;;;;;48.57;31.33;;;;;;;9.25;100.00;98748.91;5051877;28;20267;-79
2024/04/01 02:09:03;;;;;;;48.13;30.67;;;;;;;9.25;100.00;98740.94;5060052;28;20206;-79
2024/04/01 02:11:28;;;;;;;44.97;31.23;;;;;;;9.25;100.00;98741.78;5053149;28;20539;-79
2024/04/01 02:13:56;;;;;;;45.77;30.53;;;;;;;9.26;100.00;98738.13;5054998;28;20198;-79
2024/04/01 02:16:22;;;;;;;43.87;28.67;;;;;;;9.24;100.00;98739.25;5053435;28;20296;-79
2024/04/01 02:18:48;;;;;;;40.17;24.90;;;;;;;9.16;100.00;98725.78;5053449;28;20266;-81
2024/04/01 02:21:18;;;;;;;44.87;28.13;;;;;;;9.02;100.00;98735.81;5056190;28;20693;-79
2024/04/01 02:23:45;;;;;;;45.00;27.20;;;;;;;8.95;100.00;98729.38;5054685;28;20216;-79
2024/04/01 02:26:10;;;;;;;40.77;25.87;;;;;;;8.92;100.00;98723.47;5061486;28;20302;-80
2024/04/01 02:28:37;;;;;;;43.10;27.30;;;;;;;8.89;100.00;98729.91;5056926;28;20237;-79
2024/04/01 02:31:04;;;;;;;40.33;26.80;;;;;;;8.88;100.00;98722.06;5053314;28;20206;-78
2024/04/01 02:33:30;;;;;;;43.07;27.43;;;;;;;8.86;100.00;98719.53;5055209;28;20639;-79
2024/04/01 02:35:56;;;;;;;46.67;29.10;;;;;;;8.85;100.00;98712.53;5055416;28;20305;-80
2024/04/01 02:38:23;;;;;;;47.67;29.03;;;;;;;8.87;100.00;98704.44;5055464;28;20212;-79
2024/04/01 02:40:48;;;;;;;45.37;29.23;;;;;;;8.87;100.00;98691.19;5055168;28;20261;-79
2024/04/01 02:43:15;;;;;;;45.50;29.70;;;;;;;8.86;100.00;98677.06;5051835;28;20293;-79
2024/04/01 02:45:41;;;;;;;49.47;30.07;;;;;;;8.86;100.00;98673.56;5056185;28;20265;-79
2024/04/01 02:48:09;;;;;;;52.87;32.17;;;;;;;8.87;100.00;98692.03;5055977;28;20577;-79
2024/04/01 02:50:34;;;;;;;50.57;33.37;;;;;;;8.87;100.00;98697.31;5054498;28;20670;-79
2024/04/01 02:53:01;;;;;;;53.20;31.83;;;;;;;8.88;100.00;98696.34;5059203;28;20205;-79
2024/04/01 02:55:27;;;;;;;50.47;32.37;;;;;;;8.88;100.00;98675.13;5054323;28;20268;-79
2024/04/01 02:57:54;;;;;;;45.07;30.73;;;;;;;8.90;100.00;98680.31;5053901;28;20213;-79
2024/04/01 03:00:22;;;;;;;51.30;31.60;;;;;;;8.91;100.00;98668.72;5056543;28;20273;-80
2024/04/01 03:02:50;;;;;;;56.63;31.73;;;;;;;8.91;100.00;98658.09;5053785;28;20223;-79
2024/04/01 03:05:18;;;;;;;54.90;33.70;;;;;;;8.92;100.00;98663.25;5054938;28;20251;-80
2024/04/01 03:07:46;;;;;;;51.93;30.10;;;;;;;8.89;100.00;98652.91;5058026;28;20256;-79
2024/04/01 03:10:12;;;;;;;53.40;30.97;;;;;;;8.80;100.00;98643.09;5060421;28;20213;-79
2024/04/01 03:12:39;;;;;;;51.93;29.70;;;;;;;8.74;100.00;98637.50;5056416;28;20208;-79
2024/04/01 03:15:05;;;;;;;54.13;33.20;;;;;;;8.66;100.00;98638.16;5051818;28;20257;-79
2024/04/01 03:17:32;;;;;;;55.53;33.30;;;;;;;8.60;100.00;98636.88;5053426;28;20226;-79
2024/04/01 03:19:59;;;;;;;51.47;31.77;;;;;;;8.59;100.00;98640.53;5054544;28;20216;-79
2024/04/01 03:22:28;;;;;;;53.07;32.23;;;;;;;8.59;100.00;98643.19;5060569;28;20201;-79
2024/04/01 03:24:53;;;;;;;55.53;34.07;;;;;;;8.60;100.00;98649.28;5058834;28;20257;-79
2024/04/01 03:27:20;;;;;;;47.87;32.20;;;;;;;8.59;100.00;98648.47;5052552;28;20304;-79
2024/04/01 03:29:46;;;;;;;52.17;34.13;;;;;;;8.61;100.00;98649.16;5045495;28;20663;-79
2024/04/01 03:32:13;;;;;;;59.77;36.13;;;;;;;8.62;100.00;98650.00;5053111;28;20198;-79
2024/04/01 03:34:38;;;;;;;65.13;35.90;;;;;;;8.64;100.00;98648.06;5049991;28;20256;-79
2024/04/01 03:37:05;;;;;;;54.40;35.00;;;;;;;8.68;100.00;98649.47;5054884;28;20207;-80
2024/04/01 03:39:33;;;;;;;55.00;36.53;;;;;;;8.67;100.00;98648.63;5054634;28;20228;-79
2024/04/01 03:41:59;;;;;;;53.27;34.30;;;;;;;8.69;100.00;98645.84;5054945;28;20453;-79
2024/04/01 03:44:26;;;;;;;51.27;32.30;;;;;;;8.69;100.00;98651.16;5057261;28;20276;-79
2024/04/01 03:46:52;;;;;;;54.03;32.07;;;;;;;8.68;100.00;98654.78;5051560;28;20283;-79
2024/04/01 03:49:18;;;;;;;46.10;31.13;;;;;;;8.68;100.00;98674.19;5049358;28;20576;-79
2024/04/01 03:51:44;;;;;;;48.93;33.83;;;;;;;8.67;100.00;98677.81;5054910;28;20292;-79
2024/04/01 03:54:11;;;;;;;53.40;34.33;;;;;;;8.68;100.00;98663.59;5053200;28;20622;-79
2024/04/01 03:56:38;;;;;;;54.93;33.50;;;;;;;8.70;100.00;98647.53;5054501;28;20236;-79
2024/04/01 03:59:04;;;;;;;59.77;36.60;;;;;;;8.72;100.00;98637.63;5048911;28;20233;-79
2024/04/01 04:01:31;;;;;;;58.20;34.73;;;;;;;8.74;100.00;98638.34;5050643;28;20588;-79
2024/04/01 04:03:57;;;;;;;52.60;34.83;;;;;;;8.75;100.00;98632.06;5057759;28;20209;-79
2024/04/01 04:06:23;;;;;;;57.97;36.97;;;;;;;8.78;100.00;98628.28;5055036;28;20257;-79
2024/04/01 04:08:50;;;;;;;63.30;36.27;;;;;;;8.79;100.00;98622.81;5054095;28;20240;-79
2024/04/01 04:11:15;;;;;;;50.53;35.23;;;;;;;8.80;100.00;98616.53;5050691;28;20202;-78
2024/04/01 04:13:44;;;;;;;47.33;32.83;;;;;;;8.80;100.00;98615.69;5053136;28;20205;-79
2024/04/01 04:16:09;;;;;;;50.87;31.70;;;;;;;8.79;100.00;98620.16;5051929;28;20249;-79
2024/04/01 04:18:36;;;;;;;46.00;32.00;;;;;;;8.77;100.00;98611.53;5050728;28;20233;-79
2024/04/01 04:21:05;;;;;;;46.30;32.37;;;;;;;8.75;100.00;98602.88;5052205;28;20233;-79
2024/04/01 04:23:31;;;;;;;53.83;32.63;;;;;;;8.75;100.00;98589.59;5052746;28;20193;-79
2024/04/01 04:25:57;;;;;;;52.67;31.90;;;;;;;8.72;100.00;98583.72;5052917;28;20279;-79
2024/04/01 04:28:23;;;;;;;47.17;33.43;;;;;;;8.67;100.00;98571.69;5056487;28;20221;-79
2024/04/01 04:30:51;;;;;;;48.00;32.23;;;;;;;8.65;100.00;98568.31;5049692;28;20209;-79
2024/04/01 04:33:16;;;;;;;46.50;30.93;;;;;;;8.66;100.00;98574.47;5053020;28;20245;-79
2024/04/01 04:35:43;;;;;;;52.07;34.20;;;;;;;8.65;100.00;98578.94;5057780;28;20229;-79
2024/04/01 04:38:09;;;;;;;50.17;31.73;;;;;;;8.65;100.00;98573.63;5049702;28;20206;-79
2024/04/01 04:40:35;;;;;;;44.97;31.07;;;;;;;8.67;100.00;98570.84;5055172;28;20259;-79
2024/04/01 04:43:01;;;;;;;41.50;29.53;;;;;;;8.68;100.00;98572.53;5051506;28;20232;-79
2024/04/01 04:45:28;;;;;;;48.20;30.07;;;;;;;8.69;100.00;98569.72;5051997;28;20237;-79
2024/04/01 04:47:55;;;;;;;45.87;31.40;;;;;;;8.70;100.00;98554.66;5050027;28;20234;-79
2024/04/01 04:50:22;;;;;;;44.70;28.73;;;;;;;8.71;100.00;98545.72;5054733;28;20208;-80
2024/04/01 04:52:48;;;;;;;46.00;29.00;;;;;;;8.73;100.00;98551.72;5053751;28;20272;-79
2024/04/01 04:55:16;;;;;;;45.03;28.67;;;;;;;8.75;100.00;98565.72;5057105;28;20217;-79
2024/04/01 04:57:42;;;;;;;49.27;28.53;;;;;;;8.76;100.00;98567.38;5054159;28;20242;-80
2024/04/01 05:00:21;;;;;;;50.73;29.53;;;;;;;8.78;100.00;98581.34;5043951;28;20280;-79
2024/04/01 05:02:47;;;;;;;40.70;26.57;;;;;;;8.77;100.00;98579.69;5055973;28;20206;-79
2024/04/01 05:05:15;;;;;;;38.47;27.03;;;;;;;8.78;100.00;98575.22;5051116;28;20240;-79
2024/04/01 05:07:41;;;;;;;39.53;25.10;;;;;;;8.80;100.00;98571.41;5049766;28;20658;-80
2024/04/01 05:10:08;;;;;;;37.30;25.10;;;;;;;8.81;100.00;98565.13;5057303;28;20244;-79
2024/04/01 05:12:33;;;;;;;38.07;24.70;;;;;;;8.84;100.00;98562.22;5057708;28;20646;-79
2024/04/01 05:15:00;;;;;;;36.80;25.03;;;;;;;8.86;100.00;98560.28;5053759;28;20240;-79
2024/04/01 05:17:26;;;;;;;37.97;25.50;;;;;;;8.87;100.00;98561.09;5057900;28;20617;-79
2024/04/01 05:19:53;;;;;;;46.13;27.23;;;;;;;8.88;100.00;98568.09;5055079;28;20206;-79
2024/04/01 05:22:21;;;;;;;41.30;26.13;;;;;;;8.90;100.00;98574.13;5055183;28;20236;-79
2024/04/01 05:24:48;;;;;;;37.03;26.67;;;;;;;8.91;100.00;98579.28;5050833;28;20225;-79
2024/04/01 05:27:13;;;;;;;40.70;26.03;;;;;;;8.90;100.00;98580.25;5059729;28;20253;-79
2024/04/01 05:29:40;;;;;;;40.90;27.43;;;;;;;8.89;100.00;98572.44;5056603;28;20241;-79
2024/04/01 05:32:06;;;;;;;38.83;26.87;;;;;;;8.90;100.00;98561.69;5058195;28;20209;-78
2024/04/01 05:34:37;;;;;;;37.23;26.43;;;;;;;8.90;100.00;98571.47;5056204;28;20228;-79
2024/04/01 05:37:03;;;;;;;41.43;27.07;;;;;;;8.91;100.00;98573.13;5055556;28;20658;-79
2024/04/01 05:39:31;;;;;;;44.60;27.97;;;;;;;8.91;100.00;98589.91;5057058;28;20201;-79
2024/04/01 05:41:57;;;;;;;38.63;25.07;;;;;;;8.92;100.00;98607.50;5052029;28;20248;-79
2024/04/01 05:44:23;;;;;;;37.77;24.40;;;;;;;8.94;100.00;98605.56;5055727;28;20228;-79
2024/04/01 05:46:49;;;;;;;41.53;24.70;;;;;;;8.95;100.00;98598.44;5049840;28;20679;-78
2024/04/01 05:49:15;;;;;;;34.63;23.20;;;;;;;8.98;100.00;98616.72;5049770;28;20271;-78
2024/04/01 05:51:41;;;;;;;35.87;23.00;;;;;;;8.99;100.00;98615.75;5052846;28;20294;-79
2024/04/01 05:54:08;;;;;;;34.53;22.37;;;;;;;9.03;100.00;98609.19;5052429;28;20301;-78
2024/04/01 05:56:35;;;;;;;33.03;21.73;;;;;;;9.05;100.00;98624.03;5053710;28;20249;-79
2024/04/01 05:59:02;;;;;;;31.17;20.73;;;;;;;9.08;100.00;98641.50;5051427;28;20212;-79
2024/04/01 06:01:28;;;;;;;28.23;21.00;;;;;;;9.08;100.00;98641.50;5049502;28;20637;-79
2024/04/01 06:03:54;;;;;;;28.13;20.10;;;;;;;9.10;100.00;98630.75;5052088;28;20209;-79
2024/04/01 06:06:20;;;;;;;37.20;21.37;;;;;;;9.11;100.00;98622.66;5053760;28;20259;-79
2024/04/01 06:08:46;;;;;;;34.53;21.80;;;;;;;9.16;100.00;98656.72;5053322;28;20210;-80
2024/04/01 06:11:12;;;;;;;28.43;20.87;;;;;;;9.19;100.00;98644.03;5052288;28;20625;-79
2024/04/01 06:13:40;;;;;;;34.53;20.40;;;;;;;9.18;100.00;98622.91;5047282;28;20288;-79
2024/04/01 06:16:06;;;;;;;35.47;21.80;;;;;;;9.20;100.00;98610.34;5053897;28;20309;-79
2024/04/01 06:18:33;;;;;;;35.30;20.93;;;;;;;9.20;100.00;98615.66;5053975;28;20248;-79
2024/04/01 06:20:58;;;;;;;29.77;20.90;;;;;;;9.19;100.00;98614.81;5053553;28;20233;-79
2024/04/01 06:23:25;;;;;;;30.60;20.83;;;;;;;9.20;100.00;98619.16;5053967;28;20242;-79
2024/04/01 06:25:50;;;;;;;34.73;22.00;;;;;;;9.21;100.00;98622.66;5052770;28;20316;-79
2024/04/01 06:28:17;;;;;;;37.43;21.33;;;;;;;9.19;100.00;98614.81;5045082;28;20302;-79
2024/04/01 06:30:44;;;;;;;34.13;22.80;;;;;;;9.21;100.00;98602.25;5050149;28;20242;-79
2024/04/01 06:33:11;;;;;;;31.77;21.37;;;;;;;9.23;100.00;98587.00;5053590;28;20217;-79
2024/04/01 06:35:36;;;;;;;33.03;21.97;;;;;;;9.24;100.00;98563.94;5053281;28;20312;-80
2024/04/01 06:38:03;;;;;;;36.20;24.37;;;;;;;9.23;100.00;98562.25;5055060;28;20237;-80
2024/04/01 06:40:29;;;;;;;42.07;28.83;;;;;;;9.24;100.00;98580.72;5058657;28;20203;-80
2024/04/01 06:42:55;;;;;;;45.83;28.83;;;;;;;9.25;100.00;98579.75;5060735;28;20209;-80
2024/04/01 06:45:21;;;;;;;48.53;29.43;;;;;;;9.27;100.00;98582.25;5054318;28;20320;-79
2024/04/01 06:47:49;;;;;;;43.37;30.20;;;;;;;9.28;100.00;98581.28;5054714;28;20265;-80
2024/04/01 06:50:14;;;;;;;54.47;33.60;;;;;;;9.29;100.00;98565.22;5055599;28;20324;-80
2024/04/01 06:52:41;;;;;;;60.30;35.47;;;;;;;9.30;100.00;98568.72;5054263;28;20293;-77
2024/04/01 06:55:07;;;;;;;55.57;32.73;;;;;;;9.31;100.00;98559.75;5047166;28;20745;-77
2024/04/01 06:57:33;;;;;;;47.30;32.27;;;;;;;9.34;100.00;98556.81;5048741;28;20292;-77
2024/04/01 06:59:59;;;;;;;48.53;32.87;;;;;;;9.35;100.00;98553.16;5049623;28;20292;-77
2024/04/01 07:02:26;;;;;;;40.00;26.83;;;;;;;9.35;100.00;98550.50;5046569;28;20701;-79
2024/04/01 07:04:53;;;;;;;41.03;25.10;;;;;;;9.37;100.00;98543.25;5050786;28;20571;-79
2024/04/01 07:07:20;;;;;;;34.90;24.40;;;;;;;9.40;100.00;98548.28;5045890;28;20225;-79
2024/04/01 07:09:46;;;;;;;34.30;21.80;;;;;;;9.43;100.00;98534.72;5047925;28;20301;-79
2024/04/01 07:12:13;;;;;;;30.30;22.10;;;;;;;9.46;100.00;98531.78;5050307;28;20289;-79
2024/04/01 07:14:43;;;;;;;34.63;21.20;;;;;;;9.49;100.00;98531.50;5052050;28;20217;-79
2024/04/01 07:17:10;;;;;;;33.47;21.20;;;;;;;9.50;100.00;98534.97;5044482;28;20198;-79
2024/04/01 07:19:36;;;;;;;34.67;23.50;;;;;;;9.52;100.00;98530.34;5052030;28;20294;-79
2024/04/01 07:22:04;;;;;;;38.50;24.23;;;;;;;9.53;100.00;98530.22;5052617;28;20241;-79
2024/04/01 07:24:30;;;;;;;35.00;22.27;;;;;;;9.55;100.00;98530.06;5050736;28;20221;-79
2024/04/01 07:26:56;;;;;;;32.07;22.40;;;;;;;9.57;100.00;98528.97;5052366;28;20230;-79
2024/04/01 07:29:22;;;;;;;33.57;22.13;;;;;;;9.59;100.00;98547.41;5052980;28;20273;-79
2024/04/01 07:31:48;;;;;;;29.63;21.40;;;;;;;9.61;100.00;98546.31;5047805;28;20242;-79
2024/04/01 07:34:14;;;;;;;28.47;20.67;;;;;;;9.63;100.00;98559.44;5052387;28;20238;-80
2024/04/01 07:36:41;;;;;;;35.43;21.53;;;;;;;9.67;100.00;98559.00;5049645;28;20202;-79
2024/04/01 07:39:08;;;;;;;30.37;20.53;;;;;;;9.70;100.00;98564.03;5053149;28;20297;-79
2024/04/01 07:41:34;;;;;;;30.40;20.20;;;;;;;9.70;100.00;98571.19;5049977;28;20281;-79
2024/04/01 07:44:00;;;;;;;27.60;21.60;;;;;;;9.72;100.00;98575.38;5048936;28;20233;-79
2024/04/01 07:46:27;;;;;;;29.60;22.00;;;;;;;9.74;100.00;98588.53;5050694;28;20227;-78
2024/04/01 07:48:52;;;;;;;31.40;22.07;;;;;;;9.79;100.00;98602.25;5054666;28;20254;-78
2024/04/01 07:51:19;;;;;;;29.70;20.80;;;;;;;9.83;100.00;98614.28;5052455;28;20211;-78
2024/04/01 07:53:44;;;;;;;32.83;22.87;;;;;;;9.87;100.00;98614.81;5054294;28;20320;-78
2024/04/01 07:56:12;;;;;;;36.97;23.90;;;;;;;9.91;100.00;98594.94;5050234;28;20324;-78
2024/04/01 07:58:40;;;;;;;30.87;22.00;;;;;;;9.92;100.00;98578.00;5052538;28;20234;-79
2024/04/01 08:01:08;;;;;;;33.50;22.90;;;;;;;9.93;100.00;98585.00;5051242;28;20214;-79
2024/04/01 08:03:33;;;;;;;31.60;23.27;;;;;;;9.94;100.00;98587.50;5052924;28;20225;-79
2024/04/01 08:06:02;;;;;;;32.60;22.00;;;;;;;9.98;100.00;98588.06;5048863;28;20222;-79
2024/04/01 08:08:28;;;;;;;32.03;21.63;;;;;;;10.01;100.00;98583.31;5051779;28;20814;-78
2024/04/01 08:10:54;;;;;;;30.13;21.73;;;;;;;10.04;100.00;98582.16;5046388;28;20294;-80
2024/04/01 08:13:21;;;;;;;32.23;23.10;;;;;;;10.06;100.00;98582.84;5051960;28;20307;-79
2024/04/01 08:15:58;;;;;;;30.03;23.03;;;;;;;10.06;100.00;98589.00;5049120;28;20223;-79
2024/04/01 08:18:24;;;;;;;30.27;22.23;;;;;;;10.08;100.00;98567.59;5053086;28;20222;-79
2024/04/01 08:20:50;;;;;;;29.50;22.63;;;;;;;10.08;100.00;98560.47;5052787;28;20904;-79
2024/04/01 08:23:17;;;;;;;33.73;24.37;;;;;;;10.08;100.00;98552.47;5055139;28;20292;-79
2024/04/01 08:25:43;;;;;;;35.13;24.10;;;;;;;10.12;100.00;98553.03;5053379;28;20227;-80
2024/04/01 08:28:09;;;;;;;27.83;21.93;;;;;;;10.14;100.00;98550.22;5052878;28;20228;-79
2024/04/01 08:30:37;;;;;;;34.77;22.17;;;;;;;10.13;100.00;98551.22;5049313;28;20208;-79
2024/04/01 08:33:03;;;;;;;35.33;21.43;;;;;;;10.14;100.00;98551.06;5047121;28;20237;-79
2024/04/01 08:35:29;;;;;;;30.90;20.93;;;;;;;10.15;100.00;98555.41;5051382;28;20294;-79
2024/04/01 08:37:55;;;;;;;30.37;20.40;;;;;;;10.17;100.00;98549.94;5050967;28;20228;-79
2024/04/01 08:40:22;;;;;;;23.87;19.67;;;;;;;10.16;100.00;98557.09;5049081;28;20677;-79
2024/04/01 08:42:52;;;;;;;28.70;19.83;;;;;;;10.15;100.00;98568.72;5052458;28;20248;-79
2024/04/01 08:45:19;;;;;;;26.10;20.50;;;;;;;10.16;100.00;98578.38;5053995;28;20238;-79
2024/04/01 08:47:50;;;;;;;30.13;20.50;;;;;;;10.17;100.00;98568.56;5055540;28;20264;-79
2024/04/01 08:50:21;;;;;;;30.17;22.13;;;;;;;10.20;100.00;98563.00;5054713;28;20202;-79
2024/04/01 08:52:53;;;;;;;32.70;21.30;;;;;;;10.23;100.00;98552.88;5052245;28;20267;-79
2024/04/01 08:55:21;;;;;;;29.20;20.53;;;;;;;10.24;100.00;98554.56;5056521;28;20236;-79
2024/04/01 08:57:47;;;;;;;35.70;22.73;;;;;;;10.25;100.00;98566.03;5053532;28;20227;-79
2024/04/01 09:00:14;;;;;;;33.47;21.00;;;;;;;10.26;100.00;98578.34;5051219;28;20309;-80
2024/04/01 09:02:40;;;;;;;32.23;22.37;;;;;;;10.24;100.00;98580.31;5053847;28;20228;-80
2024/04/01 09:05:08;;;;;;;31.73;21.93;;;;;;;10.27;100.00;98582.69;5056482;28;20235;-80
2024/04/01 09:07:34;;;;;;;33.17;21.07;;;;;;;10.28;100.00;98582.53;5054290;28;20230;-79
2024/04/01 09:10:00;;;;;;;33.87;21.00;;;;;;;10.30;100.00;98588.56;5056467;28;20278;-79
2024/04/01 09:12:27;;;;;;;27.37;20.57;;;;;;;10.33;100.00;98612.22;5054636;28;20650;-79
2024/04/01 09:14:54;;;;;;;33.87;22.10;;;;;;;10.32;100.00;98609.72;5056487;28;20236;-79
2024/04/01 09:17:26;;;;;;;34.63;20.60;;;;;;;10.32;100.00;98597.25;5055148;28;20203;-80
2024/04/01 09:19:53;;;;;;;29.37;20.93;;;;;;;10.32;100.00;98591.09;5052291;28;20230;-79
2024/04/01 09:22:20;;;;;;;31.23;21.80;;;;;;;10.33;100.00;98577.63;5049541;28;20288;-79
2024/04/01 09:24:47;;;;;;;33.90;20.70;;;;;;;10.37;100.00;98589.66;5051608;28;20224;-79
2024/04/01 09:27:12;;;;;;;36.27;21.77;;;;;;;10.40;100.00;98585.84;5052038;28;20616;-79
2024/04/01 09:29:39;;;;;;;29.27;21.87;;;;;;;10.40;100.00;98589.34;5053392;28;20217;-79
2024/04/01 09:32:05;;;;;;;37.60;22.37;;;;;;;10.41;100.00;98591.03;5053700;28;20308;-79
2024/04/01 09:34:32;;;;;;;30.23;21.50;;;;;;;10.40;100.00;98585.84;5053380;28;20232;-79
2024/04/01 09:36:57;;;;;;;31.23;21.57;;;;;;;10.40;100.00;98581.38;5047855;28;20231;-79
2024/04/01 09:39:26;;;;;;;31.93;20.93;;;;;;;10.44;100.00;98565.94;5055516;28;20707;-78
2024/04/01 09:41:52;;;;;;;30.33;22.20;;;;;;;10.46;100.00;98564.00;5052482;28;20202;-79
2024/04/01 09:44:19;;;;;;;33.17;22.57;;;;;;;10.51;100.00;98564.38;5048889;28;20208;-79
2024/04/01 09:46:45;;;;;;;30.87;21.43;;;;;;;10.56;100.00;98562.13;5055837;28;20256;-79
2024/04/01 09:49:12;;;;;;;34.53;22.00;;;;;;;10.56;100.00;98566.63;5054013;28;20223;-79
2024/04/01 09:51:38;;;;;;;35.10;22.27;;;;;;;10.56;100.00;98558.63;5051829;28;20258;-80
2024/04/01 09:54:05;;;;;;;32.20;21.80;;;;;;;10.61;100.00;98556.34;5048304;28;20238;-79
2024/04/01 09:57:04;;;;;;;33.73;22.47;;;;;;;10.67;100.00;98550.44;5050191;28;20299;-79
2024/04/01 10:00:09;;;;;;;28.03;21.27;;;;;;;10.73;100.00;98540.03;5047985;28;20208;-79
2024/04/01 10:03:12;;;;;;;34.00;21.43;;;;;;;10.83;100.00;98534.63;5048090;28;20226;-79
2024/04/01 10:06:23;;;;;;;29.97;20.83;;;;;;;10.88;100.00;98528.88;5048031;28;20234;-78
2024/04/01 10:09:13;;;;;;;28.67;21.03;;;;;;;10.95;100.00;98524.59;5032233;28;20229;-79
2024/04/01 10:11:57;;;;;;;27.57;19.33;;;;;;;11.01;100.00;98522.19;5050917;28;20620;-79
2024/04/01 10:14:56;;;;;;;27.83;18.77;;;;;;;11.06;100.00;98525.22;5051570;28;20195;-79
2024/04/01 10:18:02;;;;;;;21.37;17.27;;;;;;;11.13;100.00;98522.78;5045954;28;20815;-79
2024/04/01 10:20:54;;;;;;;30.67;19.57;;;;;;;11.18;100.00;98512.50;5054170;28;20231;-80
2024/04/01 10:24:12;;;;;;;19.90;17.40;;;;;;;11.20;100.00;98497.22;5052897;28;20198;-79
2024/04/01 10:27:09;;;;;;;26.63;18.10;;;;;;;11.22;100.00;98492.56;5010240;28;20741;-79
2024/04/01 10:30:14;;;;;;;22.43;16.97;;;;;;;11.25;100.00;98499.44;5005113;28;20211;-79
2024/04/01 10:33:19;;;;;;;21.60;17.60;;;;;;;11.31;100.00;98504.13;5046774;28;20241;-79
2024/04/01 10:36:19;;;;;;;19.47;16.10;;;;;;;11.36;100.00;98504.50;5022583;28;20224;-80
2024/04/01 10:39:07;;;;;;;23.83;17.73;;;;;;;11.41;100.00;98507.56;5040654;28;20240;-79
2024/04/01 10:42:01;;;;;;;26.13;18.27;;;;;;;11.44;100.00;98505.41;5055231;28;20264;-79
2024/04/01 10:44:55;;;;;;;25.57;17.20;;;;;;;11.46;100.00;98499.94;5055839;28;20730;-79
2024/04/01 10:47:54;;;;;;;25.40;18.07;;;;;;;11.49;100.00;98508.44;5059502;28;20296;-79
2024/04/01 10:50:48;;;;;;;23.57;16.63;;;;;;;11.53;100.00;98514.31;5049600;28;20229;-79
2024/04/01 10:53:44;;;;;;;20.30;15.50;;;;;;;11.58;100.00;98524.50;5053228;28;20215;-79
2024/04/01 10:56:53;;;;;;;19.73;15.90;;;;;;;11.56;100.00;98519.31;5049190;28;20267;-79
2024/04/01 11:00:07;;;;;;;19.30;15.13;;;;;;;11.58;100.00;98535.16;5054502;28;20207;-78
2024/04/01 11:03:12;;;;;;;21.73;15.13;;;;;;;11.58;100.00;98540.50;5009697;28;20210;-78
2024/04/01 11:06:08;;;;;;;21.07;15.57;;;;;;;11.58;100.00;98538.69;5053925;28;20225;-78
2024/04/01 11:08:47;;;;;;;23.93;15.47;;;;;;;11.57;100.00;98555.66;5048092;28;20309;-78
2024/04/01 11:11:31;;;;;;;17.33;15.13;;;;;;;11.56;100.00;98546.00;5055422;28;20782;-79
2024/04/01 11:13:59;;;;;;;18.83;15.73;;;;;;;11.54;100.00;98539.97;5055982;28;20239;-78
2024/04/01 11:16:30;;;;;;;15.90;14.10;;;;;;;11.51;100.00;98539.44;5051678;28;20312;-79
2024/04/01 11:19:15;;;;;;;17.13;14.33;;;;;;;11.50;100.00;98546.59;5056703;28;20212;-77
2024/04/01 11:21:50;;;;;;;18.37;13.87;;;;;;;11.50;100.00;98554.59;5051488;28;20220;-77
2024/04/01 11:24:30;;;;;;;20.67;14.53;;;;;;;11.48;100.00;98560.06;5050538;28;20692;-78
2024/04/01 11:27:22;;;;;;;20.57;14.17;;;;;;;11.43;100.00;98562.38;5048392;28;20209;-78